Hlavní strana
METAR-TAF:

METAR-TAF

Letiště :

Banja Luka, Bosna a Hercegovina

zeměpisná šířka: 44-47N, zeměpisná délka: 017-13E, výška: 156 m

Aktuální stav počasí

Zpráva byla vytvořena před 11 minutami, v 07:00 UTC
Severní vítr 4 kt, proměnlivý mezi severozápadním a severoseverovýchodním
Teplota 22°C
Vlhkost vzduchu 73%
Tlak 1016 hPa
Viditelnost 10 km a více
Žádná oblačnost pod 1500 m, nevyskytují se cumulonimby.

METAR: LQBK 150700Z 35004KT 310V020 CAVOK 22/17 Q1016 N0SIG

Čas: 09:11 (07:11 UTC)

Předpověď počasí

Zpráva byla vytvořena před 2 hodinami a 11 minutami, v 05:00 UTC
Předpověď platná od 15 v 06 UTC do 16 v 06 UTC
Severoseverozápadní vítr 5 kt
Viditelnost 10 km a více
Polojasno ve výšce 4000 ft

TAF: LQBK 150500Z 1506/1606 34005KT 9999 SCT040 TX28/1513Z TN18/1603Z

Stav a předpovědi počasí z více než 4 000 letišť (zprávy METAR a TAF).

Červené a žluté tečky na mapě představují dostupné meteorologické stanice.

Když kurzor umístíte na tečku, zobrazí se název stanice.

Pak kliknutím zobrazíte stav a předpověď počasí.

Chcete-li změnit mapu, kliknutím na zelené tlačítko se znaménkem +mapu přiblížíte, kliknutím na zelené tlačítko se znaménkem – mapu oddálíte a kliknutím na zelené šipky přejdete na sousední mapy.


METAR-TAF: